sensor_id;sensor_type;location;lat;lon;timestamp;P1;durP1;ratioP1;P2;durP2;ratioP2
60641;SDS011;46837;52.446;-1.930;2023-02-08T00:00:07;38.46;;;20.30;;
60641;SDS011;46837;52.446;-1.930;2023-02-08T00:01:07;40.68;;;20.60;;
60641;SDS011;46837;52.446;-1.930;2023-02-08T00:02:07;40.96;;;21.98;;
60641;SDS011;46837;52.446;-1.930;2023-02-08T00:03:07;42.66;;;17.34;;
60641;SDS011;46837;52.446;-1.930;2023-02-08T00:04:07;31.62;;;14.28;;
60641;SDS011;46837;52.446;-1.930;2023-02-08T00:05:07;33.76;;;18.66;;
60641;SDS011;46837;52.446;-1.930;2023-02-08T00:06:07;37.46;;;17.44;;
60641;SDS011;46837;52.446;-1.930;2023-02-08T00:07:07;36.06;;;16.46;;
60641;SDS011;46837;52.446;-1.930;2023-02-08T00:08:07;37.28;;;17.38;;
60641;SDS011;46837;52.446;-1.930;2023-02-08T00:09:07;30.68;;;16.54;;
60641;SDS011;46837;52.446;-1.930;2023-02-08T00:10:07;36.48;;;17.64;;
60641;SDS011;46837;52.446;-1.930;2023-02-08T00:11:07;36.36;;;16.92;;
60641;SDS011;46837;52.446;-1.930;2023-02-08T00:12:07;40.48;;;16.86;;
60641;SDS011;46837;52.446;-1.930;2023-02-08T00:13:07;38.12;;;16.84;;
60641;SDS011;46837;52.446;-1.930;2023-02-08T00:14:07;36.24;;;17.28;;
60641;SDS011;46837;52.446;-1.930;2023-02-08T00:15:07;43.64;;;17.36;;
60641;SDS011;46837;52.446;-1.930;2023-02-08T00:16:07;43.74;;;17.92;;
60641;SDS011;46837;52.446;-1.930;2023-02-08T00:17:07;27.16;;;16.04;;
60641;SDS011;46837;52.446;-1.930;2023-02-08T00:18:07;30.54;;;16.40;;
60641;SDS011;46837;52.446;-1.930;2023-02-08T00:19:07;29.84;;;17.54;;
60641;SDS011;46837;52.446;-1.930;2023-02-08T00:20:07;35.42;;;16.26;;
60641;SDS011;46837;52.446;-1.930;2023-02-08T00:21:10;38.24;;;17.12;;
60641;SDS011;46837;52.446;-1.930;2023-02-08T00:22:07;33.26;;;14.62;;
60641;SDS011;46837;52.446;-1.930;2023-02-08T00:23:07;33.34;;;17.10;;
60641;SDS011;46837;52.446;-1.930;2023-02-08T00:24:07;41.94;;;18.20;;
60641;SDS011;46837;52.446;-1.930;2023-02-08T00:25:07;33.38;;;16.82;;
60641;SDS011;46837;52.446;-1.930;2023-02-08T00:26:07;34.60;;;17.42;;
60641;SDS011;46837;52.446;-1.930;2023-02-08T00:27:07;38.94;;;17.06;;
60641;SDS011;46837;52.446;-1.930;2023-02-08T00:28:07;39.52;;;18.16;;
60641;SDS011;46837;52.446;-1.930;2023-02-08T00:29:07;36.84;;;16.32;;
60641;SDS011;46837;52.446;-1.930;2023-02-08T00:30:07;34.36;;;16.58;;
60641;SDS011;46837;52.446;-1.930;2023-02-08T00:31:07;32.70;;;15.82;;
60641;SDS011;46837;52.446;-1.930;2023-02-08T00:32:07;30.72;;;15.42;;
60641;SDS011;46837;52.446;-1.930;2023-02-08T00:33:07;37.90;;;15.92;;
60641;SDS011;46837;52.446;-1.930;2023-02-08T00:34:07;37.32;;;17.04;;
60641;SDS011;46837;52.446;-1.930;2023-02-08T00:35:07;32.70;;;17.42;;
60641;SDS011;46837;52.446;-1.930;2023-02-08T00:36:07;34.84;;;16.14;;
60641;SDS011;46837;52.446;-1.930;2023-02-08T00:37:07;30.88;;;16.34;;
60641;SDS011;46837;52.446;-1.930;2023-02-08T00:38:07;32.44;;;15.64;;
60641;SDS011;46837;52.446;-1.930;2023-02-08T00:39:07;36.14;;;16.76;;
60641;SDS011;46837;52.446;-1.930;2023-02-08T00:40:07;35.54;;;17.16;;
60641;SDS011;46837;52.446;-1.930;2023-02-08T00:41:07;34.66;;;16.64;;
60641;SDS011;46837;52.446;-1.930;2023-02-08T00:42:07;41.32;;;18.60;;
60641;SDS011;46837;52.446;-1.930;2023-02-08T00:43:07;44.78;;;20.28;;
60641;SDS011;46837;52.446;-1.930;2023-02-08T00:44:07;39.98;;;18.12;;
60641;SDS011;46837;52.446;-1.930;2023-02-08T00:45:07;33.60;;;17.24;;
60641;SDS011;46837;52.446;-1.930;2023-02-08T00:46:07;34.18;;;18.36;;
60641;SDS011;46837;52.446;-1.930;2023-02-08T00:47:07;32.02;;;17.26;;
60641;SDS011;46837;52.446;-1.930;2023-02-08T00:48:07;41.88;;;18.24;;
60641;SDS011;46837;52.446;-1.930;2023-02-08T00:49:07;33.82;;;17.54;;
60641;SDS011;46837;52.446;-1.930;2023-02-08T00:50:08;39.02;;;16.40;;
60641;SDS011;46837;52.446;-1.930;2023-02-08T00:51:08;36.66;;;16.68;;
60641;SDS011;46837;52.446;-1.930;2023-02-08T00:52:07;37.62;;;18.24;;
60641;SDS011;46837;52.446;-1.930;2023-02-08T00:53:07;39.80;;;16.10;;
60641;SDS011;46837;52.446;-1.930;2023-02-08T00:54:10;30.12;;;16.74;;
60641;SDS011;46837;52.446;-1.930;2023-02-08T00:55:07;36.94;;;18.02;;
60641;SDS011;46837;52.446;-1.930;2023-02-08T00:56:07;31.96;;;16.98;;
60641;SDS011;46837;52.446;-1.930;2023-02-08T00:57:07;33.90;;;17.70;;
60641;SDS011;46837;52.446;-1.930;2023-02-08T00:58:07;35.42;;;18.24;;
60641;SDS011;46837;52.446;-1.930;2023-02-08T00:59:07;33.86;;;17.62;;
60641;SDS011;46837;52.446;-1.930;2023-02-08T01:00:07;26.26;;;15.80;;
60641;SDS011;46837;52.446;-1.930;2023-02-08T01:01:07;39.54;;;17.82;;
60641;SDS011;46837;52.446;-1.930;2023-02-08T01:02:07;33.44;;;17.18;;
60641;SDS011;46837;52.446;-1.930;2023-02-08T01:03:07;31.10;;;17.70;;
60641;SDS011;46837;52.446;-1.930;2023-02-08T01:04:07;30.60;;;17.58;;
60641;SDS011;46837;52.446;-1.930;2023-02-08T01:05:08;30.96;;;18.52;;
60641;SDS011;46837;52.446;-1.930;2023-02-08T01:06:08;35.80;;;17.56;;
60641;SDS011;46837;52.446;-1.930;2023-02-08T01:07:07;38.78;;;18.60;;
60641;SDS011;46837;52.446;-1.930;2023-02-08T01:08:07;34.20;;;17.46;;
60641;SDS011;46837;52.446;-1.930;2023-02-08T01:09:07;102.28;;;33.22;;
60641;SDS011;46837;52.446;-1.930;2023-02-08T01:10:07;72.36;;;25.60;;
60641;SDS011;46837;52.446;-1.930;2023-02-08T01:11:11;54.94;;;22.76;;
60641;SDS011;46837;52.446;-1.930;2023-02-08T01:12:07;62.40;;;22.72;;
60641;SDS011;46837;52.446;-1.930;2023-02-08T01:13:07;61.66;;;22.84;;
60641;SDS011;46837;52.446;-1.930;2023-02-08T01:14:07;47.40;;;21.72;;
60641;SDS011;46837;52.446;-1.930;2023-02-08T01:15:07;58.78;;;22.56;;
60641;SDS011;46837;52.446;-1.930;2023-02-08T01:16:08;55.52;;;20.82;;
60641;SDS011;46837;52.446;-1.930;2023-02-08T01:17:07;64.62;;;22.88;;
60641;SDS011;46837;52.446;-1.930;2023-02-08T01:18:07;66.72;;;24.70;;
60641;SDS011;46837;52.446;-1.930;2023-02-08T01:19:07;55.62;;;22.58;;
60641;SDS011;46837;52.446;-1.930;2023-02-08T01:20:07;57.46;;;21.78;;
60641;SDS011;46837;52.446;-1.930;2023-02-08T01:21:08;40.40;;;18.82;;
60641;SDS011;46837;52.446;-1.930;2023-02-08T01:22:07;39.36;;;20.20;;
60641;SDS011;46837;52.446;-1.930;2023-02-08T01:23:07;41.06;;;19.60;;
60641;SDS011;46837;52.446;-1.930;2023-02-08T01:24:07;38.34;;;18.38;;
60641;SDS011;46837;52.446;-1.930;2023-02-08T01:25:07;35.00;;;18.28;;
60641;SDS011;46837;52.446;-1.930;2023-02-08T01:26:07;34.92;;;18.08;;
60641;SDS011;46837;52.446;-1.930;2023-02-08T01:27:07;41.04;;;18.74;;
60641;SDS011;46837;52.446;-1.930;2023-02-08T01:28:07;34.98;;;18.60;;
60641;SDS011;46837;52.446;-1.930;2023-02-08T01:29:07;41.36;;;18.56;;
60641;SDS011;46837;52.446;-1.930;2023-02-08T01:30:07;34.38;;;17.62;;
60641;SDS011;46837;52.446;-1.930;2023-02-08T01:31:11;45.08;;;17.16;;
60641;SDS011;46837;52.446;-1.930;2023-02-08T01:32:07;37.84;;;18.52;;
60641;SDS011;46837;52.446;-1.930;2023-02-08T01:33:07;39.94;;;18.80;;
60641;SDS011;46837;52.446;-1.930;2023-02-08T01:34:07;50.14;;;21.88;;
60641;SDS011;46837;52.446;-1.930;2023-02-08T01:35:07;52.48;;;21.06;;
60641;SDS011;46837;52.446;-1.930;2023-02-08T01:36:07;44.22;;;20.34;;
60641;SDS011;46837;52.446;-1.930;2023-02-08T01:37:07;40.86;;;19.10;;
60641;SDS011;46837;52.446;-1.930;2023-02-08T01:38:07;35.72;;;17.24;;
60641;SDS011;46837;52.446;-1.930;2023-02-08T01:39:07;28.54;;;16.92;;
60641;SDS011;46837;52.446;-1.930;2023-02-08T01:40:07;39.98;;;18.74;;
60641;SDS011;46837;52.446;-1.930;2023-02-08T01:41:08;34.50;;;18.06;;
60641;SDS011;46837;52.446;-1.930;2023-02-08T01:42:09;31.40;;;17.24;;
60641;SDS011;46837;52.446;-1.930;2023-02-08T01:46:07;37.08;;;18.18;;
60641;SDS011;46837;52.446;-1.930;2023-02-08T01:47:07;35.28;;;17.76;;
60641;SDS011;46837;52.446;-1.930;2023-02-08T01:48:09;36.26;;;19.28;;
60641;SDS011;46837;52.446;-1.930;2023-02-08T01:49:08;35.60;;;17.18;;
60641;SDS011;46837;52.446;-1.930;2023-02-08T01:50:07;43.10;;;20.14;;
60641;SDS011;46837;52.446;-1.930;2023-02-08T01:51:09;41.24;;;19.46;;
60641;SDS011;46837;52.446;-1.930;2023-02-08T01:52:08;38.82;;;17.42;;
60641;SDS011;46837;52.446;-1.930;2023-02-08T01:53:07;43.84;;;19.82;;
60641;SDS011;46837;52.446;-1.930;2023-02-08T01:54:08;51.28;;;23.42;;
60641;SDS011;46837;52.446;-1.930;2023-02-08T01:56:09;63.24;;;24.88;;
60641;SDS011;46837;52.446;-1.930;2023-02-08T01:57:07;58.52;;;23.68;;
60641;SDS011;46837;52.446;-1.930;2023-02-08T01:58:07;60.08;;;21.42;;
60641;SDS011;46837;52.446;-1.930;2023-02-08T01:59:12;53.80;;;22.82;;
60641;SDS011;46837;52.446;-1.930;2023-02-08T02:00:08;44.88;;;21.52;;
60641;SDS011;46837;52.446;-1.930;2023-02-08T02:01:07;48.36;;;19.78;;
60641;SDS011;46837;52.446;-1.930;2023-02-08T02:02:08;42.42;;;19.84;;
60641;SDS011;46837;52.446;-1.930;2023-02-08T02:03:07;47.36;;;19.82;;
60641;SDS011;46837;52.446;-1.930;2023-02-08T02:04:07;42.66;;;19.72;;
60641;SDS011;46837;52.446;-1.930;2023-02-08T02:05:07;34.16;;;18.88;;
60641;SDS011;46837;52.446;-1.930;2023-02-08T02:06:07;38.82;;;18.52;;
60641;SDS011;46837;52.446;-1.930;2023-02-08T02:07:07;46.64;;;20.50;;
60641;SDS011;46837;52.446;-1.930;2023-02-08T02:08:07;44.04;;;18.66;;
60641;SDS011;46837;52.446;-1.930;2023-02-08T02:10:11;44.08;;;20.32;;
60641;SDS011;46837;52.446;-1.930;2023-02-08T02:11:07;43.60;;;21.24;;
60641;SDS011;46837;52.446;-1.930;2023-02-08T02:12:07;44.70;;;20.26;;
60641;SDS011;46837;52.446;-1.930;2023-02-08T02:13:11;41.12;;;20.14;;
60641;SDS011;46837;52.446;-1.930;2023-02-08T02:14:07;43.46;;;22.10;;
60641;SDS011;46837;52.446;-1.930;2023-02-08T02:15:07;38.60;;;21.56;;
60641;SDS011;46837;52.446;-1.930;2023-02-08T02:16:07;50.40;;;25.68;;
60641;SDS011;46837;52.446;-1.930;2023-02-08T02:17:07;43.00;;;21.88;;
60641;SDS011;46837;52.446;-1.930;2023-02-08T02:18:07;43.24;;;22.10;;
60641;SDS011;46837;52.446;-1.930;2023-02-08T02:19:09;39.00;;;20.52;;
60641;SDS011;46837;52.446;-1.930;2023-02-08T02:20:13;37.96;;;19.46;;
60641;SDS011;46837;52.446;-1.930;2023-02-08T02:21:16;36.38;;;17.80;;
60641;SDS011;46837;52.446;-1.930;2023-02-08T02:22:19;39.54;;;17.12;;
60641;SDS011;46837;52.446;-1.930;2023-02-08T02:25:16;38.88;;;17.92;;
60641;SDS011;46837;52.446;-1.930;2023-02-08T02:30:12;35.20;;;17.14;;
60641;SDS011;46837;52.446;-1.930;2023-02-08T02:34:08;43.86;;;19.18;;
60641;SDS011;46837;52.446;-1.930;2023-02-08T02:35:10;33.10;;;18.98;;
60641;SDS011;46837;52.446;-1.930;2023-02-08T02:40:14;36.54;;;20.58;;
60641;SDS011;46837;52.446;-1.930;2023-02-08T02:42:13;44.44;;;18.14;;
60641;SDS011;46837;52.446;-1.930;2023-02-08T02:43:13;34.68;;;17.52;;
60641;SDS011;46837;52.446;-1.930;2023-02-08T02:44:09;32.48;;;16.74;;
60641;SDS011;46837;52.446;-1.930;2023-02-08T02:52:10;37.52;;;19.36;;
60641;SDS011;46837;52.446;-1.930;2023-02-08T02:55:08;41.12;;;18.40;;
60641;SDS011;46837;52.446;-1.930;2023-02-08T02:57:08;39.72;;;18.52;;
60641;SDS011;46837;52.446;-1.930;2023-02-08T02:58:07;43.82;;;18.04;;
60641;SDS011;46837;52.446;-1.930;2023-02-08T02:59:07;34.36;;;15.84;;
60641;SDS011;46837;52.446;-1.930;2023-02-08T03:00:07;27.08;;;16.62;;
60641;SDS011;46837;52.446;-1.930;2023-02-08T03:01:07;36.00;;;17.14;;
60641;SDS011;46837;52.446;-1.930;2023-02-08T03:02:07;30.38;;;16.24;;
60641;SDS011;46837;52.446;-1.930;2023-02-08T03:03:12;30.54;;;16.64;;
60641;SDS011;46837;52.446;-1.930;2023-02-08T03:04:11;35.40;;;18.06;;
60641;SDS011;46837;52.446;-1.930;2023-02-08T03:05:08;29.70;;;16.56;;
60641;SDS011;46837;52.446;-1.930;2023-02-08T03:06:11;31.30;;;17.00;;
60641;SDS011;46837;52.446;-1.930;2023-02-08T03:11:10;34.48;;;16.48;;
60641;SDS011;46837;52.446;-1.930;2023-02-08T03:16:15;33.74;;;18.48;;
60641;SDS011;46837;52.446;-1.930;2023-02-08T03:17:14;35.74;;;17.42;;
60641;SDS011;46837;52.446;-1.930;2023-02-08T03:19:09;25.66;;;16.64;;
60641;SDS011;46837;52.446;-1.930;2023-02-08T03:20:09;30.74;;;18.54;;
60641;SDS011;46837;52.446;-1.930;2023-02-08T03:21:53;31.84;;;19.44;;
60641;SDS011;46837;52.446;-1.930;2023-02-08T03:22:11;32.22;;;17.10;;
60641;SDS011;46837;52.446;-1.930;2023-02-08T03:23:51;37.02;;;19.00;;
60641;SDS011;46837;52.446;-1.930;2023-02-08T03:25:09;33.18;;;18.62;;
60641;SDS011;46837;52.446;-1.930;2023-02-08T03:26:12;42.88;;;19.06;;
60641;SDS011;46837;52.446;-1.930;2023-02-08T03:28:31;28.84;;;18.40;;
60641;SDS011;46837;52.446;-1.930;2023-02-08T03:31:12;30.54;;;17.54;;
60641;SDS011;46837;52.446;-1.930;2023-02-08T03:32:08;35.80;;;18.92;;
60641;SDS011;46837;52.446;-1.930;2023-02-08T03:36:25;29.82;;;17.64;;
60641;SDS011;46837;52.446;-1.930;2023-02-08T03:37:08;39.66;;;19.02;;
60641;SDS011;46837;52.446;-1.930;2023-02-08T03:38:10;43.96;;;20.40;;
60641;SDS011;46837;52.446;-1.930;2023-02-08T03:39:07;34.56;;;19.24;;
60641;SDS011;46837;52.446;-1.930;2023-02-08T03:41:08;36.36;;;18.70;;
60641;SDS011;46837;52.446;-1.930;2023-02-08T03:42:11;32.50;;;18.50;;
60641;SDS011;46837;52.446;-1.930;2023-02-08T03:43:08;38.68;;;19.76;;
60641;SDS011;46837;52.446;-1.930;2023-02-08T03:44:11;39.78;;;18.66;;
60641;SDS011;46837;52.446;-1.930;2023-02-08T03:45:11;40.12;;;21.14;;
60641;SDS011;46837;52.446;-1.930;2023-02-08T03:47:08;39.70;;;19.30;;
60641;SDS011;46837;52.446;-1.930;2023-02-08T03:48:07;31.98;;;17.74;;
60641;SDS011;46837;52.446;-1.930;2023-02-08T03:49:07;39.18;;;20.72;;
60641;SDS011;46837;52.446;-1.930;2023-02-08T03:50:08;37.60;;;20.84;;
60641;SDS011;46837;52.446;-1.930;2023-02-08T03:51:07;38.48;;;21.36;;
60641;SDS011;46837;52.446;-1.930;2023-02-08T03:52:07;39.54;;;21.64;;
60641;SDS011;46837;52.446;-1.930;2023-02-08T03:53:07;43.84;;;21.28;;
60641;SDS011;46837;52.446;-1.930;2023-02-08T03:54:09;45.90;;;22.92;;
60641;SDS011;46837;52.446;-1.930;2023-02-08T03:55:09;33.06;;;20.12;;
60641;SDS011;46837;52.446;-1.930;2023-02-08T03:56:11;40.90;;;22.26;;
60641;SDS011;46837;52.446;-1.930;2023-02-08T03:57:11;36.24;;;20.66;;
60641;SDS011;46837;52.446;-1.930;2023-02-08T03:58:11;38.50;;;20.86;;
60641;SDS011;46837;52.446;-1.930;2023-02-08T03:59:08;38.80;;;21.72;;
60641;SDS011;46837;52.446;-1.930;2023-02-08T04:00:08;44.16;;;22.72;;
60641;SDS011;46837;52.446;-1.930;2023-02-08T04:01:09;38.10;;;20.36;;
60641;SDS011;46837;52.446;-1.930;2023-02-08T04:02:08;36.42;;;20.78;;
60641;SDS011;46837;52.446;-1.930;2023-02-08T04:03:12;37.86;;;20.64;;
60641;SDS011;46837;52.446;-1.930;2023-02-08T04:04:07;42.16;;;23.32;;
60641;SDS011;46837;52.446;-1.930;2023-02-08T04:05:07;41.60;;;21.28;;
60641;SDS011;46837;52.446;-1.930;2023-02-08T04:06:07;41.90;;;21.02;;
60641;SDS011;46837;52.446;-1.930;2023-02-08T04:07:07;41.40;;;22.74;;
60641;SDS011;46837;52.446;-1.930;2023-02-08T04:08:07;38.54;;;19.46;;
60641;SDS011;46837;52.446;-1.930;2023-02-08T04:09:07;36.66;;;20.76;;
60641;SDS011;46837;52.446;-1.930;2023-02-08T04:10:07;46.48;;;22.64;;
60641;SDS011;46837;52.446;-1.930;2023-02-08T04:11:07;39.00;;;24.02;;
60641;SDS011;46837;52.446;-1.930;2023-02-08T04:12:07;35.66;;;19.34;;
60641;SDS011;46837;52.446;-1.930;2023-02-08T04:13:07;39.92;;;19.80;;
60641;SDS011;46837;52.446;-1.930;2023-02-08T04:14:07;29.92;;;19.08;;
60641;SDS011;46837;52.446;-1.930;2023-02-08T04:15:07;40.24;;;19.30;;
60641;SDS011;46837;52.446;-1.930;2023-02-08T04:16:08;45.70;;;21.64;;
60641;SDS011;46837;52.446;-1.930;2023-02-08T04:17:07;53.86;;;23.38;;
60641;SDS011;46837;52.446;-1.930;2023-02-08T04:18:07;46.42;;;22.28;;
60641;SDS011;46837;52.446;-1.930;2023-02-08T04:19:07;35.52;;;20.16;;
60641;SDS011;46837;52.446;-1.930;2023-02-08T04:20:07;38.66;;;21.82;;
60641;SDS011;46837;52.446;-1.930;2023-02-08T04:21:07;34.46;;;19.96;;
60641;SDS011;46837;52.446;-1.930;2023-02-08T04:22:07;40.96;;;20.26;;
60641;SDS011;46837;52.446;-1.930;2023-02-08T04:23:07;32.40;;;20.48;;
60641;SDS011;46837;52.446;-1.930;2023-02-08T04:24:07;39.92;;;19.30;;
60641;SDS011;46837;52.446;-1.930;2023-02-08T04:25:07;46.04;;;20.06;;
60641;SDS011;46837;52.446;-1.930;2023-02-08T04:26:08;44.12;;;21.84;;
60641;SDS011;46837;52.446;-1.930;2023-02-08T04:27:07;39.86;;;23.60;;
60641;SDS011;46837;52.446;-1.930;2023-02-08T04:28:07;40.42;;;22.66;;
60641;SDS011;46837;52.446;-1.930;2023-02-08T04:29:07;41.40;;;21.84;;
60641;SDS011;46837;52.446;-1.930;2023-02-08T04:30:07;42.82;;;21.28;;
60641;SDS011;46837;52.446;-1.930;2023-02-08T04:31:07;34.28;;;19.94;;
60641;SDS011;46837;52.446;-1.930;2023-02-08T04:32:11;51.50;;;22.36;;
60641;SDS011;46837;52.446;-1.930;2023-02-08T04:33:07;43.14;;;22.02;;
60641;SDS011;46837;52.446;-1.930;2023-02-08T04:34:07;43.62;;;23.06;;
60641;SDS011;46837;52.446;-1.930;2023-02-08T04:35:07;39.54;;;22.54;;
60641;SDS011;46837;52.446;-1.930;2023-02-08T04:36:07;40.06;;;23.58;;
60641;SDS011;46837;52.446;-1.930;2023-02-08T04:37:07;37.68;;;21.28;;
60641;SDS011;46837;52.446;-1.930;2023-02-08T04:38:07;46.34;;;24.40;;
60641;SDS011;46837;52.446;-1.930;2023-02-08T04:39:07;38.74;;;22.26;;
60641;SDS011;46837;52.446;-1.930;2023-02-08T04:40:07;39.60;;;24.02;;
60641;SDS011;46837;52.446;-1.930;2023-02-08T04:41:07;49.70;;;25.66;;
60641;SDS011;46837;52.446;-1.930;2023-02-08T04:42:07;33.62;;;21.24;;
60641;SDS011;46837;52.446;-1.930;2023-02-08T04:43:07;37.98;;;20.42;;
60641;SDS011;46837;52.446;-1.930;2023-02-08T04:44:07;39.24;;;22.74;;
60641;SDS011;46837;52.446;-1.930;2023-02-08T04:45:07;42.38;;;21.66;;
60641;SDS011;46837;52.446;-1.930;2023-02-08T04:46:07;45.20;;;22.42;;
60641;SDS011;46837;52.446;-1.930;2023-02-08T04:47:07;41.26;;;21.96;;
60641;SDS011;46837;52.446;-1.930;2023-02-08T04:48:07;45.72;;;23.06;;
60641;SDS011;46837;52.446;-1.930;2023-02-08T04:49:07;38.52;;;21.88;;
60641;SDS011;46837;52.446;-1.930;2023-02-08T04:50:07;42.68;;;21.38;;
60641;SDS011;46837;52.446;-1.930;2023-02-08T04:51:07;45.92;;;23.70;;
60641;SDS011;46837;52.446;-1.930;2023-02-08T04:52:07;38.38;;;22.20;;
60641;SDS011;46837;52.446;-1.930;2023-02-08T04:53:07;53.12;;;23.66;;
60641;SDS011;46837;52.446;-1.930;2023-02-08T04:54:07;42.06;;;22.60;;
60641;SDS011;46837;52.446;-1.930;2023-02-08T04:55:07;40.62;;;23.48;;
60641;SDS011;46837;52.446;-1.930;2023-02-08T04:56:07;40.58;;;23.70;;
60641;SDS011;46837;52.446;-1.930;2023-02-08T04:57:07;37.94;;;21.44;;
60641;SDS011;46837;52.446;-1.930;2023-02-08T04:58:07;48.52;;;22.82;;
60641;SDS011;46837;52.446;-1.930;2023-02-08T04:59:07;41.66;;;22.68;;
60641;SDS011;46837;52.446;-1.930;2023-02-08T05:00:07;45.02;;;22.02;;
60641;SDS011;46837;52.446;-1.930;2023-02-08T05:01:07;43.06;;;22.66;;
60641;SDS011;46837;52.446;-1.930;2023-02-08T05:02:07;50.56;;;25.80;;
60641;SDS011;46837;52.446;-1.930;2023-02-08T05:03:07;41.66;;;24.50;;
60641;SDS011;46837;52.446;-1.930;2023-02-08T05:04:07;39.36;;;22.84;;
60641;SDS011;46837;52.446;-1.930;2023-02-08T05:05:07;43.76;;;22.22;;
60641;SDS011;46837;52.446;-1.930;2023-02-08T05:06:07;44.92;;;22.96;;
60641;SDS011;46837;52.446;-1.930;2023-02-08T05:07:07;53.00;;;25.84;;
60641;SDS011;46837;52.446;-1.930;2023-02-08T05:08:07;40.50;;;23.08;;
60641;SDS011;46837;52.446;-1.930;2023-02-08T05:09:07;45.06;;;23.28;;
60641;SDS011;46837;52.446;-1.930;2023-02-08T05:10:07;44.04;;;26.02;;
60641;SDS011;46837;52.446;-1.930;2023-02-08T05:11:07;52.38;;;22.88;;
60641;SDS011;46837;52.446;-1.930;2023-02-08T05:12:07;50.04;;;22.26;;
60641;SDS011;46837;52.446;-1.930;2023-02-08T05:13:07;36.52;;;20.94;;
60641;SDS011;46837;52.446;-1.930;2023-02-08T05:14:07;43.44;;;23.18;;
60641;SDS011;46837;52.446;-1.930;2023-02-08T05:15:07;45.60;;;25.48;;
60641;SDS011;46837;52.446;-1.930;2023-02-08T05:16:07;51.20;;;24.50;;
60641;SDS011;46837;52.446;-1.930;2023-02-08T05:17:07;42.00;;;21.92;;
60641;SDS011;46837;52.446;-1.930;2023-02-08T05:18:07;38.40;;;22.66;;
60641;SDS011;46837;52.446;-1.930;2023-02-08T05:19:08;40.28;;;22.40;;
60641;SDS011;46837;52.446;-1.930;2023-02-08T05:20:07;48.18;;;24.70;;
60641;SDS011;46837;52.446;-1.930;2023-02-08T05:21:07;58.70;;;23.80;;
60641;SDS011;46837;52.446;-1.930;2023-02-08T05:22:07;42.96;;;22.26;;
60641;SDS011;46837;52.446;-1.930;2023-02-08T05:23:07;44.52;;;25.40;;
60641;SDS011;46837;52.446;-1.930;2023-02-08T05:24:07;42.68;;;23.62;;
60641;SDS011;46837;52.446;-1.930;2023-02-08T05:25:07;40.64;;;24.28;;
60641;SDS011;46837;52.446;-1.930;2023-02-08T05:26:07;36.16;;;20.88;;
60641;SDS011;46837;52.446;-1.930;2023-02-08T05:27:07;47.02;;;22.24;;
60641;SDS011;46837;52.446;-1.930;2023-02-08T05:28:07;43.12;;;23.82;;
60641;SDS011;46837;52.446;-1.930;2023-02-08T05:29:07;47.30;;;24.48;;
60641;SDS011;46837;52.446;-1.930;2023-02-08T05:30:07;45.90;;;24.86;;
60641;SDS011;46837;52.446;-1.930;2023-02-08T05:31:16;51.30;;;24.70;;
60641;SDS011;46837;52.446;-1.930;2023-02-08T05:32:07;38.82;;;23.86;;
60641;SDS011;46837;52.446;-1.930;2023-02-08T05:33:07;43.74;;;21.94;;
60641;SDS011;46837;52.446;-1.930;2023-02-08T05:34:07;49.24;;;23.22;;
60641;SDS011;46837;52.446;-1.930;2023-02-08T05:35:07;45.76;;;23.14;;
60641;SDS011;46837;52.446;-1.930;2023-02-08T05:36:07;42.32;;;22.76;;
60641;SDS011;46837;52.446;-1.930;2023-02-08T05:37:07;48.04;;;24.20;;
60641;SDS011;46837;52.446;-1.930;2023-02-08T05:38:07;48.16;;;25.20;;
60641;SDS011;46837;52.446;-1.930;2023-02-08T05:39:07;36.62;;;23.24;;
60641;SDS011;46837;52.446;-1.930;2023-02-08T05:40:07;48.98;;;23.74;;
60641;SDS011;46837;52.446;-1.930;2023-02-08T05:41:07;36.62;;;22.80;;
60641;SDS011;46837;52.446;-1.930;2023-02-08T05:42:07;43.82;;;24.80;;
60641;SDS011;46837;52.446;-1.930;2023-02-08T05:43:07;40.42;;;24.04;;
60641;SDS011;46837;52.446;-1.930;2023-02-08T05:44:07;42.02;;;23.90;;
60641;SDS011;46837;52.446;-1.930;2023-02-08T05:45:07;39.94;;;21.96;;
60641;SDS011;46837;52.446;-1.930;2023-02-08T05:46:07;55.06;;;27.28;;
60641;SDS011;46837;52.446;-1.930;2023-02-08T05:47:07;56.68;;;27.86;;
60641;SDS011;46837;52.446;-1.930;2023-02-08T05:48:07;54.14;;;26.64;;
60641;SDS011;46837;52.446;-1.930;2023-02-08T05:49:07;43.36;;;24.82;;
60641;SDS011;46837;52.446;-1.930;2023-02-08T05:50:07;39.36;;;23.38;;
60641;SDS011;46837;52.446;-1.930;2023-02-08T05:51:07;46.56;;;23.64;;
60641;SDS011;46837;52.446;-1.930;2023-02-08T05:52:07;38.32;;;21.76;;
60641;SDS011;46837;52.446;-1.930;2023-02-08T05:53:07;51.18;;;23.56;;
60641;SDS011;46837;52.446;-1.930;2023-02-08T05:54:07;47.26;;;25.06;;
60641;SDS011;46837;52.446;-1.930;2023-02-08T05:55:07;51.96;;;26.74;;
60641;SDS011;46837;52.446;-1.930;2023-02-08T05:56:07;48.80;;;27.62;;
60641;SDS011;46837;52.446;-1.930;2023-02-08T05:57:07;48.08;;;25.86;;
60641;SDS011;46837;52.446;-1.930;2023-02-08T05:58:07;55.04;;;25.42;;
60641;SDS011;46837;52.446;-1.930;2023-02-08T05:59:07;43.92;;;24.20;;
60641;SDS011;46837;52.446;-1.930;2023-02-08T06:00:07;48.26;;;26.32;;
60641;SDS011;46837;52.446;-1.930;2023-02-08T06:01:10;55.56;;;27.48;;
60641;SDS011;46837;52.446;-1.930;2023-02-08T06:02:07;49.58;;;23.90;;
60641;SDS011;46837;52.446;-1.930;2023-02-08T06:03:07;60.32;;;25.96;;
60641;SDS011;46837;52.446;-1.930;2023-02-08T06:04:07;43.36;;;24.06;;
60641;SDS011;46837;52.446;-1.930;2023-02-08T06:05:07;54.54;;;25.92;;
60641;SDS011;46837;52.446;-1.930;2023-02-08T06:06:07;62.30;;;27.26;;
60641;SDS011;46837;52.446;-1.930;2023-02-08T06:07:07;51.80;;;27.80;;
60641;SDS011;46837;52.446;-1.930;2023-02-08T06:08:07;56.18;;;27.76;;
60641;SDS011;46837;52.446;-1.930;2023-02-08T06:09:07;58.66;;;26.86;;
60641;SDS011;46837;52.446;-1.930;2023-02-08T06:10:07;53.22;;;27.06;;
60641;SDS011;46837;52.446;-1.930;2023-02-08T06:11:07;48.32;;;25.30;;
60641;SDS011;46837;52.446;-1.930;2023-02-08T06:12:07;71.68;;;31.70;;
60641;SDS011;46837;52.446;-1.930;2023-02-08T06:13:07;59.76;;;26.58;;
60641;SDS011;46837;52.446;-1.930;2023-02-08T06:14:07;59.78;;;26.50;;
60641;SDS011;46837;52.446;-1.930;2023-02-08T06:15:07;56.64;;;27.76;;
60641;SDS011;46837;52.446;-1.930;2023-02-08T06:16:07;50.24;;;28.26;;
60641;SDS011;46837;52.446;-1.930;2023-02-08T06:17:07;56.64;;;28.32;;
60641;SDS011;46837;52.446;-1.930;2023-02-08T06:18:07;44.78;;;25.66;;
60641;SDS011;46837;52.446;-1.930;2023-02-08T06:19:07;67.42;;;26.74;;
60641;SDS011;46837;52.446;-1.930;2023-02-08T06:20:07;54.80;;;27.98;;
60641;SDS011;46837;52.446;-1.930;2023-02-08T06:21:07;45.10;;;24.74;;
60641;SDS011;46837;52.446;-1.930;2023-02-08T06:22:07;55.04;;;25.64;;
60641;SDS011;46837;52.446;-1.930;2023-02-08T06:23:07;53.10;;;26.52;;
60641;SDS011;46837;52.446;-1.930;2023-02-08T06:24:07;46.76;;;23.80;;
60641;SDS011;46837;52.446;-1.930;2023-02-08T06:25:07;44.34;;;22.72;;
60641;SDS011;46837;52.446;-1.930;2023-02-08T06:26:07;57.20;;;27.76;;
60641;SDS011;46837;52.446;-1.930;2023-02-08T06:27:07;59.70;;;27.06;;
60641;SDS011;46837;52.446;-1.930;2023-02-08T06:28:07;58.20;;;27.74;;
60641;SDS011;46837;52.446;-1.930;2023-02-08T06:29:07;51.92;;;28.16;;
60641;SDS011;46837;52.446;-1.930;2023-02-08T06:30:07;46.16;;;25.76;;
60641;SDS011;46837;52.446;-1.930;2023-02-08T06:31:07;70.32;;;29.02;;
60641;SDS011;46837;52.446;-1.930;2023-02-08T06:32:07;57.10;;;28.54;;